Weerspreuk van de dag;      Als in januari de vorst niet komen wil,dan is zij er zeker in april.
Het weer levert geen direct gevaar op.    Er zijn geen waarschuwingen afgegeven.


Onweer radar Meer informatie blitzortung!


Regen radar Meer informatie rain snow radar


Bekijk deze sites ook eens:

FPL Automotive (TIP)

Autostekkers.nl (TIP)

Over Luyksgestel

BOL.com

Weerstation Noordbergum

Weerstation Afferden

Drone kopen?

Weerstation Hapert

Weerstation Hoogeloon

Weerstation Hechtel (B)

Weerstation Son&Breugel

Weerstation Castaert

Kamera Express

Smartphonehoesjes

Weerstation Tilburg Reeshof

Weerstation Scheulder

Samostour webcams

Samos actueel

Weerwoord (forum)

Griekenlandforum

Vakantie naar Samos

Alpenweerman

Wintersportweerman

Sneeuwhoogte Oostenrijk

Sneeuwhoogte Zwitserland

Sneeuwhoogte Duitsland

Sneeuwhoogte Italie

Sneeuwhoogte Frankrijk

Winterzon

Webcams Gargellen

Gargellen actueel

Gargellen Lawinedienst

Wintersportweer



METAR rapporten vliegvelden

   
EBAW - Antwerp
Gewijzigd: 21-01-2018 13:20
Licht bewolkt  
Licht bewolkt  
   Wind: ZW 11.1 km/h
Wind: ZW 11.1 km/h
Temperatuur: 5°C
Voelt als: 2°C
Dauwpunt: 2°C
Vochtigheid: 81%
Barometer: 1017 hPa
Bewolking: Licht bewolkt
Zicht: meer dan 10 km
Bewolking: Licht bewolkt 2500 ft
EBAW 211220Z 22006KT 9999 FEW025 05/02 Q1017 NOSIG
EBLG - Liège
Gewijzigd: 21-01-2018 13:20
Gedeeltelijk bewolkt  
Gedeeltelijk bewolkt  
   Wind: ZW 14.8 km/h
Wind: ZW 14.8 km/h
Temperatuur: 3°C
Voelt als: -1°C
Dauwpunt: 2°C
Vochtigheid: 93%
Barometer: 1016 hPa
Bewolking: Gedeeltelijk bewolkt
Zicht: 7 km
Bewolking: Gedeeltelijk bewolkt 700 ft
EBLG 211220Z 22008KT 7000 SCT007 03/02 Q1016 NOSIG
EBCV - Mons/Bergen
Gewijzigd: 21-01-2018 13:25
Grotendeels bewolkt  
Grotendeels bewolkt  
   Wind: ZZW 9.3 km/h
Wind: ZZW 9.3 km/h
Temperatuur: 4°C
Voelt als: 2°C
Dauwpunt: 3°C
Vochtigheid: 93%
Barometer: 1017 hPa
Bewolking: Grotendeels bewolkt
Zicht: 6 km
Bewolking: Licht bewolkt 600 ft,
Grotendeels bewolkt 9200 ft
EBCV 211225Z AUTO 20005KT 6000 FEW006/// BKN092/// 04/03 Q1017 WHT
EHBK - Maastricht
Gewijzigd: 21-01-2018 13:25
Gedeeltelijk bewolkt  
Gedeeltelijk bewolkt  
   Wind: ZW 13 km/h
Wind: ZW 13 km/h
Temperatuur: 4°C
Voelt als: 1°C
Dauwpunt: 2°C
Vochtigheid: 87%
Barometer: 1016 hPa
Bewolking: Gedeeltelijk bewolkt
Zicht: meer dan 10 km
Bewolking: Gedeeltelijk bewolkt
EHBK 211225Z AUTO 22007KT 9999 NSC 04/02 Q1016 NOSIG
ELLX - Luxemburg
Gewijzigd: 21-01-2018 13:20
Licht bewolkt  
Licht bewolkt  
   Wind: WZW 7.4 km/h
Wind: WZW 7.4 km/h
Temperatuur: 2°C
Voelt als: 0°C
Dauwpunt: 0°C
Vochtigheid: 87%
Barometer: 1017 hPa
Bewolking: Licht bewolkt
Zicht: meer dan 10 km
Bewolking: Licht bewolkt 1200 ft
ELLX 211220Z 24004KT 210V310 9999 FEW012 02/00 Q1017 NOSIG
EBOS - Oostende
Gewijzigd: 21-01-2018 13:20
Licht bewolkt  
Licht bewolkt  
   Wind: ZZW 9.3 km/h
Wind: ZZW 9.3 km/h
Temperatuur: 4°C
Voelt als: 2°C
Dauwpunt: 2°C
Vochtigheid: 87%
Barometer: 1016 hPa
Bewolking: Licht bewolkt
Zicht: 9 km
Bewolking: Licht bewolkt 2200 ft
EBOS 211220Z 20005KT 9000 FEW022 04/02 Q1016 NOSIG

Script ontwikkeld door  Saratoga-weather.org Aangepast voor de template door  Weerstation Leuven

U vindt ons ook hier:

UK Metoffice

European Weather Network

Weather Underground

AWEKAS